White House, Tennessee
Current Conditions -  °F | °C
As of 9:53 AM on Wednesday 22 Oct 2014 (Local Time) from KBNA Reporting Station
Few Clouds Few Clouds  
Wind Chill: 53°   Ceiling: Unl
Heat Index: 53°   Visibility: 10mi
Dew Point: 41°   Wind: 12mph
Humidity: 64%   Direction: 60°ENE
Pressure: 30.26"   Gusts: NA
Location:  36.46°N, 86.67°W
Report Text: KBNA 221453Z 06010KT 10SM FEW032 12/05 A3026 RMK AO2 SLP247 T01170050 51015
Loading
Personal Weather Stations






























Interactive Weather Map
Tropical Storm Tracking
New forecast layout! Learn more

10-Day Weather Forecast

Advertisements
Track Severe Weather on mobile